Time;durP1;ratioP1;P1;durP2;ratioP2;P2;SDS_P1;SDS_P2;PMS_P1;PMS_P2;Temp;Humidity;BMP_temperature;BMP_pressure;BME280_temperature;BME280_humidity;BME280_pressure;Samples;Min_cycle;Max_cycle;Signal;HPM_P1;HPM_P2
2021/09/15 00:00:07;;;;;;;9.93;7.03;;;;;;;;;;4975551;28;20038;-81
2021/09/15 00:02:33;;;;;;;12.15;7.13;;;;;;;;;;4975344;28;20069;-84
2021/09/15 00:05:00;;;;;;;12.35;7.53;;;;;;;;;;4977278;28;20105;-84
2021/09/15 00:07:26;;;;;;;9.82;6.93;;;;;;;;;;4975498;28;20034;-83
2021/09/15 00:09:52;;;;;;;10.32;7.15;;;;;;;;;;4975398;28;20093;-84
2021/09/15 00:12:19;;;;;;;10.88;6.78;;;;;;;;;;4976032;28;20030;-84
2021/09/15 00:14:45;;;;;;;10.82;7.15;;;;;;;;;;4975404;28;20056;-81
2021/09/15 00:17:11;;;;;;;11.52;6.70;;;;;;;;;;4976574;28;20027;-83
2021/09/15 00:19:37;;;;;;;10.43;7.13;;;;;;;;;;4976965;28;20476;-82
2021/09/15 00:22:04;;;;;;;11.75;7.78;;;;;;;;;;4976426;28;20499;-84
2021/09/15 00:24:30;;;;;;;11.63;6.47;;;;;;;;;;4977031;28;20076;-82
2021/09/15 00:26:56;;;;;;;12.38;6.72;;;;;;;;;;4976363;28;20023;-81
2021/09/15 00:29:23;;;;;;;8.88;6.53;;;;;;;;;;4975094;28;20058;-84
2021/09/15 00:31:49;;;;;;;9.88;7.18;;;;;;;;;;4975135;28;20531;-83
2021/09/15 00:34:15;;;;;;;10.20;6.47;;;;;;;;;;4976720;28;20540;-84
2021/09/15 00:36:42;;;;;;;10.48;6.63;;;;;;;;;;4974917;28;20081;-84
2021/09/15 00:39:08;;;;;;;11.52;6.80;;;;;;;;;;4976034;28;20411;-83
2021/09/15 00:41:34;;;;;;;11.10;7.05;;;;;;;;;;4974854;28;20059;-81
2021/09/15 00:44:03;;;;;;;11.52;7.35;;;;;;;;;;4974820;28;20035;-84
2021/09/15 00:46:30;;;;;;;11.18;6.85;;;;;;;;;;4974762;28;20042;-84
2021/09/15 00:48:57;;;;;;;11.32;7.78;;;;;;;;;;4974840;28;20073;-84
2021/09/15 00:51:24;;;;;;;10.55;7.75;;;;;;;;;;4975894;28;20476;-83
2021/09/15 00:53:50;;;;;;;10.63;7.68;;;;;;;;;;4974655;28;20058;-83
2021/09/15 00:56:17;;;;;;;10.65;7.50;;;;;;;;;;4975870;28;20384;-84
2021/09/15 00:58:43;;;;;;;11.60;7.25;;;;;;;;;;4975783;28;20027;-84
2021/09/15 01:01:10;;;;;;;10.82;7.18;;;;;;;;;;4975676;28;20047;-84
2021/09/15 01:03:36;;;;;;;11.30;7.43;;;;;;;;;;4975593;28;20534;-83
2021/09/15 01:06:03;;;;;;;12.25;7.22;;;;;;;;;;4974441;28;20411;-83
2021/09/15 01:08:29;;;;;;;10.57;7.32;;;;;;;;;;4975597;28;20031;-83
2021/09/15 01:10:56;;;;;;;10.82;7.75;;;;;;;;;;4976112;28;20031;-83
2021/09/15 01:13:23;;;;;;;11.45;7.18;;;;;;;;;;4975511;28;20124;-84
2021/09/15 01:15:49;;;;;;;11.57;7.97;;;;;;;;;;4975982;28;20113;-84
2021/09/15 01:18:16;;;;;;;11.43;7.10;;;;;;;;;;4975910;28;20034;-84
2021/09/15 01:20:42;;;;;;;12.20;7.43;;;;;;;;;;4975842;28;20126;-81
2021/09/15 01:23:09;;;;;;;10.40;7.38;;;;;;;;;;4973184;28;20105;-84
2021/09/15 01:25:35;;;;;;;13.05;7.57;;;;;;;;;;4974094;28;20030;-83
2021/09/15 01:28:01;;;;;;;12.68;8.15;;;;;;;;;;4974040;28;20039;-83
2021/09/15 01:30:27;;;;;;;10.35;7.40;;;;;;;;;;4973925;28;20026;-83
2021/09/15 01:32:54;;;;;;;11.75;7.38;;;;;;;;;;4975153;28;20114;-83
2021/09/15 01:35:20;;;;;;;9.35;7.43;;;;;;;;;;4975106;28;20078;-84
2021/09/15 01:37:47;;;;;;;11.52;7.43;;;;;;;;;;4975162;28;20030;-84
2021/09/15 01:40:13;;;;;;;12.57;7.40;;;;;;;;;;4973671;28;20403;-84
2021/09/15 01:42:39;;;;;;;9.82;6.97;;;;;;;;;;4975564;28;20026;-84
2021/09/15 01:45:06;;;;;;;9.77;6.93;;;;;;;;;;4975492;28;20035;-81
2021/09/15 01:47:33;;;;;;;9.35;6.70;;;;;;;;;;4973709;28;20026;-83
2021/09/15 01:49:59;;;;;;;11.68;6.40;;;;;;;;;;4974978;28;20041;-83
2021/09/15 01:52:25;;;;;;;10.15;7.15;;;;;;;;;;4975425;28;20029;-82
2021/09/15 01:54:52;;;;;;;14.57;6.97;;;;;;;;;;4973673;28;20125;-83
2021/09/15 01:57:18;;;;;;;10.20;7.05;;;;;;;;;;4974850;28;20034;-84
2021/09/15 01:59:44;;;;;;;10.77;7.30;;;;;;;;;;4974690;28;20173;-82
2021/09/15 02:02:13;;;;;;;11.60;7.32;;;;;;;;;;4973305;28;20050;-83
2021/09/15 02:04:40;;;;;;;10.63;7.00;;;;;;;;;;4975329;28;20129;-84
2021/09/15 02:07:07;;;;;;;11.45;7.28;;;;;;;;;;4975286;28;20034;-83
2021/09/15 02:09:35;;;;;;;10.50;6.82;;;;;;;;;;4974751;28;20027;-83
2021/09/15 02:12:01;;;;;;;9.43;6.78;;;;;;;;;;4973421;28;20037;-83
2021/09/15 02:14:28;;;;;;;11.65;6.82;;;;;;;;;;4973449;28;20030;-84
2021/09/15 02:16:54;;;;;;;10.20;7.07;;;;;;;;;;4974616;28;20023;-84
2021/09/15 02:19:20;;;;;;;11.82;7.05;;;;;;;;;;4974557;28;20492;-83
2021/09/15 02:21:46;;;;;;;12.43;7.90;;;;;;;;;;4975092;28;20023;-84
2021/09/15 02:24:13;;;;;;;10.07;6.80;;;;;;;;;;4973281;28;20118;-84
2021/09/15 02:26:39;;;;;;;11.13;7.10;;;;;;;;;;4973349;28;20365;-83
2021/09/15 02:29:05;;;;;;;10.98;7.55;;;;;;;;;;4974496;28;20023;-85
2021/09/15 02:31:32;;;;;;;12.27;7.40;;;;;;;;;;4974546;28;20101;-81
2021/09/15 02:33:58;;;;;;;10.25;7.63;;;;;;;;;;4974132;28;20039;-84
2021/09/15 02:36:25;;;;;;;10.20;7.10;;;;;;;;;;4978363;28;20433;-82
2021/09/15 02:38:51;;;;;;;10.07;6.95;;;;;;;;;;4977009;28;20089;-82
2021/09/15 02:41:18;;;;;;;10.60;7.18;;;;;;;;;;4978821;28;20039;-85
2021/09/15 02:43:44;;;;;;;9.68;7.13;;;;;;;;;;4977059;28;20023;-83
2021/09/15 02:46:11;;;;;;;10.20;7.55;;;;;;;;;;4978190;28;20066;-82
2021/09/15 02:48:37;;;;;;;9.77;7.30;;;;;;;;;;4976937;28;20110;-83
2021/09/15 02:51:03;;;;;;;10.05;7.35;;;;;;;;;;4976963;28;20573;-83
2021/09/15 02:53:30;;;;;;;10.32;7.35;;;;;;;;;;4978083;28;20031;-80
2021/09/15 02:55:56;;;;;;;9.90;7.40;;;;;;;;;;4976816;28;20031;-83
2021/09/15 02:58:22;;;;;;;12.43;7.93;;;;;;;;;;4978552;28;20019;-81
2021/09/15 03:00:49;;;;;;;12.70;7.03;;;;;;;;;;4976647;28;20373;-83
2021/09/15 03:03:15;;;;;;;11.57;7.20;;;;;;;;;;4977774;28;20427;-83
2021/09/15 03:05:41;;;;;;;12.05;7.43;;;;;;;;;;4978417;28;20101;-82
2021/09/15 03:08:07;;;;;;;9.88;7.10;;;;;;;;;;4976593;28;20034;-79
2021/09/15 03:10:34;;;;;;;10.20;7.30;;;;;;;;;;4976555;28;20027;-83
2021/09/15 03:13:00;;;;;;;9.38;7.15;;;;;;;;;;4977723;28;20038;-83
2021/09/15 03:15:26;;;;;;;14.65;7.72;;;;;;;;;;4977835;28;20089;-82
2021/09/15 03:17:53;;;;;;;10.43;7.95;;;;;;;;;;4976373;28;20038;-82
2021/09/15 03:20:19;;;;;;;9.70;7.38;;;;;;;;;;4978105;28;20061;-82
2021/09/15 03:22:45;;;;;;;14.27;7.63;;;;;;;;;;4977609;28;20476;-85
2021/09/15 03:25:12;;;;;;;10.82;7.63;;;;;;;;;;4977536;28;20419;-85
2021/09/15 03:27:39;;;;;;;12.30;8.07;;;;;;;;;;4977482;28;20120;-85
2021/09/15 03:30:06;;;;;;;12.05;8.25;;;;;;;;;;4977972;28;20039;-83
2021/09/15 03:32:32;;;;;;;13.20;7.90;;;;;;;;;;4977908;28;20523;-84
2021/09/15 03:34:58;;;;;;;10.73;7.70;;;;;;;;;;4977348;28;20027;-85
2021/09/15 03:37:25;;;;;;;11.75;7.55;;;;;;;;;;4976007;28;20023;-85
2021/09/15 03:39:51;;;;;;;12.30;7.75;;;;;;;;;;4977214;28;20105;-85
2021/09/15 03:42:17;;;;;;;13.45;7.53;;;;;;;;;;4977214;28;20027;-83
2021/09/15 03:44:44;;;;;;;11.60;7.70;;;;;;;;;;4977127;28;20440;-85
2021/09/15 03:47:10;;;;;;;13.50;7.85;;;;;;;;;;4976167;28;20051;-84
2021/09/15 03:49:36;;;;;;;11.77;8.38;;;;;;;;;;4975854;28;20035;-85
2021/09/15 03:52:03;;;;;;;11.35;7.88;;;;;;;;;;4975814;28;20031;-85
2021/09/15 03:54:31;;;;;;;11.32;7.68;;;;;;;;;;4976943;28;20101;-84
2021/09/15 03:56:57;;;;;;;10.18;7.68;;;;;;;;;;4975732;28;20038;-85
2021/09/15 03:59:23;;;;;;;13.10;8.15;;;;;;;;;;4976885;28;20085;-83
2021/09/15 04:01:49;;;;;;;12.20;8.02;;;;;;;;;;4975394;28;20042;-84
2021/09/15 04:04:16;;;;;;;11.35;7.43;;;;;;;;;;4975571;28;20034;-83
2021/09/15 04:06:42;;;;;;;12.40;7.88;;;;;;;;;;4976747;28;20170;-81
2021/09/15 04:09:08;;;;;;;10.13;7.35;;;;;;;;;;4975449;28;20400;-83
2021/09/15 04:11:35;;;;;;;12.82;8.15;;;;;;;;;;4976681;28;20027;-83
2021/09/15 04:14:02;;;;;;;14.38;7.40;;;;;;;;;;4976614;28;20035;-82
2021/09/15 04:16:28;;;;;;;10.15;7.22;;;;;;;;;;4977214;28;20041;-83
2021/09/15 04:18:54;;;;;;;12.38;8.45;;;;;;;;;;4975192;28;20031;-83
2021/09/15 04:21:21;;;;;;;10.77;7.28;;;;;;;;;;4975277;28;20056;-81
2021/09/15 04:32:01;;;;;;;12.52;8.60;;;;;;;;;;4976649;28;20392;-83
2021/09/15 04:34:27;;;;;;;10.20;7.65;;;;;;;;;;4975095;28;20037;-81
2021/09/15 04:36:53;;;;;;;13.65;8.63;;;;;;;;;;4975114;28;20468;-82
2021/09/15 04:39:19;;;;;;;11.40;8.48;;;;;;;;;;4975091;28;20070;-80
2021/09/15 04:41:45;;;;;;;10.65;7.78;;;;;;;;;;4975296;28;20491;-81
2021/09/15 04:44:11;;;;;;;12.35;7.85;;;;;;;;;;4974790;28;20082;-81
2021/09/15 04:46:37;;;;;;;13.88;8.48;;;;;;;;;;4974895;28;20066;-82
2021/09/15 04:49:03;;;;;;;12.98;8.68;;;;;;;;;;4974859;28;20031;-83
2021/09/15 04:51:29;;;;;;;12.43;8.13;;;;;;;;;;4974746;28;20058;-84
2021/09/15 04:53:56;;;;;;;22.52;8.90;;;;;;;;;;4974687;28;20030;-84
2021/09/15 04:56:22;;;;;;;18.45;9.85;;;;;;;;;;4974682;28;20026;-85
2021/09/15 04:58:48;;;;;;;15.13;9.70;;;;;;;;;;4974926;28;20030;-85
2021/09/15 05:01:14;;;;;;;13.15;9.43;;;;;;;;;;4976012;28;20038;-83
2021/09/15 05:03:42;;;;;;;18.38;9.05;;;;;;;;;;4974315;28;20125;-84
2021/09/15 05:06:09;;;;;;;13.07;7.80;;;;;;;;;;4976285;28;20033;-83
2021/09/15 05:08:35;;;;;;;12.25;8.27;;;;;;;;;;4975714;28;20105;-85
2021/09/15 05:11:01;;;;;;;10.60;8.35;;;;;;;;;;4975633;28;20038;-81
2021/09/15 05:13:27;;;;;;;12.27;7.93;;;;;;;;;;4976080;28;20031;-82
2021/09/15 05:16:12;;;;;;;11.73;8.20;;;;;;;;;;4975580;28;20086;-81
2021/09/15 05:18:38;;;;;;;10.10;7.60;;;;;;;;;;4975483;28;20030;-81
2021/09/15 05:21:05;;;;;;;8.82;7.10;;;;;;;;;;4975929;28;20038;-83
2021/09/15 05:23:31;;;;;;;11.00;7.90;;;;;;;;;;4975364;28;20035;-81
2021/09/15 05:25:57;;;;;;;17.38;7.97;;;;;;;;;;4974150;28;20052;-81
2021/09/15 05:28:23;;;;;;;9.45;6.97;;;;;;;;;;4974122;28;20067;-82
2021/09/15 05:30:49;;;;;;;12.95;7.57;;;;;;;;;;4974060;28;20487;-83
2021/09/15 05:33:15;;;;;;;10.45;7.40;;;;;;;;;;4974033;28;20511;-81
2021/09/15 05:35:42;;;;;;;10.27;7.22;;;;;;;;;;4973944;28;20114;-82
2021/09/15 05:38:08;;;;;;;10.23;6.75;;;;;;;;;;4973918;28;20038;-81
2021/09/15 05:40:35;;;;;;;13.05;7.50;;;;;;;;;;4973901;28;20589;-81
2021/09/15 05:43:01;;;;;;;11.35;6.97;;;;;;;;;;4973849;28;20023;-83
2021/09/15 05:45:28;;;;;;;12.23;6.90;;;;;;;;;;4973896;28;20030;-84
2021/09/15 05:47:54;;;;;;;9.50;6.65;;;;;;;;;;4975247;28;20025;-84
2021/09/15 05:50:21;;;;;;;9.07;6.10;;;;;;;;;;4975096;28;20035;-83
2021/09/15 05:52:47;;;;;;;7.82;6.13;;;;;;;;;;4975147;28;20023;-82
2021/09/15 05:55:13;;;;;;;10.48;6.18;;;;;;;;;;4973883;28;20058;-83
2021/09/15 05:57:39;;;;;;;9.07;6.10;;;;;;;;;;4973925;28;20086;-83
2021/09/15 06:00:06;;;;;;;10.90;5.25;;;;;;;;;;4973789;28;20041;-83
2021/09/15 06:02:32;;;;;;;7.93;5.05;;;;;;;;;;4973649;28;20135;-81
2021/09/15 06:04:58;;;;;;;7.45;4.43;;;;;;;;;;4973810;28;20435;-80
2021/09/15 06:07:24;;;;;;;7.22;4.57;;;;;;;;;;4975028;28;20030;-81
2021/09/15 06:09:50;;;;;;;8.88;3.08;;;;;;;;;;4973101;28;20101;-83
2021/09/15 06:12:17;;;;;;;6.97;3.42;;;;;;;;;;4973654;28;20019;-81
2021/09/15 06:14:43;;;;;;;7.20;3.05;;;;;;;;;;4975347;28;20027;-83
2021/09/15 06:17:09;;;;;;;6.68;3.22;;;;;;;;;;4974852;28;20027;-82
2021/09/15 06:19:36;;;;;;;4.10;2.88;;;;;;;;;;4974733;28;20038;-81
2021/09/15 06:22:02;;;;;;;5.05;3.03;;;;;;;;;;4973454;28;20027;-82
2021/09/15 06:24:28;;;;;;;9.48;3.30;;;;;;;;;;4973536;28;20037;-83
2021/09/15 06:26:55;;;;;;;6.15;3.30;;;;;;;;;;4974505;28;20023;-82
2021/09/15 06:29:21;;;;;;;5.97;3.30;;;;;;;;;;4975070;28;20023;-82
2021/09/15 06:31:48;;;;;;;4.82;3.10;;;;;;;;;;4975231;28;20085;-83
2021/09/15 06:34:14;;;;;;;4.32;3.00;;;;;;;;;;4973299;28;20147;-82
2021/09/15 06:36:41;;;;;;;4.70;3.08;;;;;;;;;;4974668;28;20106;-82
2021/09/15 06:39:08;;;;;;;9.05;3.78;;;;;;;;;;4973175;28;20031;-83
2021/09/15 06:41:35;;;;;;;5.50;3.65;;;;;;;;;;4974472;28;20042;-83
2021/09/15 06:44:02;;;;;;;5.03;3.50;;;;;;;;;;4973150;28;20023;-81
2021/09/15 06:46:28;;;;;;;7.05;3.17;;;;;;;;;;4973254;28;20031;-81
2021/09/15 06:48:54;;;;;;;7.28;3.33;;;;;;;;;;4973164;28;20030;-82
2021/09/15 06:51:21;;;;;;;6.68;3.67;;;;;;;;;;4973342;28;20031;-82
2021/09/15 06:53:47;;;;;;;5.32;3.40;;;;;;;;;;4973145;28;20571;-82
2021/09/15 06:56:13;;;;;;;7.40;3.50;;;;;;;;;;4973162;28;20165;-80
2021/09/15 06:58:39;;;;;;;5.18;3.45;;;;;;;;;;4973134;28;20027;-80
2021/09/15 07:01:06;;;;;;;8.68;3.55;;;;;;;;;;4973054;28;20045;-82
2021/09/15 07:03:32;;;;;;;10.13;3.72;;;;;;;;;;4974330;28;20050;-81
2021/09/15 07:05:58;;;;;;;7.63;3.42;;;;;;;;;;4973062;28;20039;-81
2021/09/15 07:08:24;;;;;;;6.63;3.95;;;;;;;;;;4974313;28;20030;-79
2021/09/15 07:10:50;;;;;;;6.32;3.50;;;;;;;;;;4974238;28;20042;-81
2021/09/15 07:13:16;;;;;;;7.93;3.95;;;;;;;;;;4974797;28;20027;-81
2021/09/15 07:15:42;;;;;;;5.57;3.75;;;;;;;;;;4975318;28;20364;-81
2021/09/15 07:18:08;;;;;;;5.13;3.15;;;;;;;;;;4974281;28;20023;-81
2021/09/15 07:20:35;;;;;;;4.60;3.15;;;;;;;;;;4975729;28;20038;-80
2021/09/15 07:23:01;;;;;;;6.30;3.58;;;;;;;;;;4977735;28;20443;-80
2021/09/15 07:25:27;;;;;;;8.25;3.88;;;;;;;;;;4978123;28;20026;-80
2021/09/15 07:27:55;;;;;;;11.02;3.75;;;;;;;;;;4976347;28;20073;-80
2021/09/15 07:30:22;;;;;;;6.65;4.00;;;;;;;;;;4977546;28;20034;-80
2021/09/15 07:32:48;;;;;;;5.95;3.35;;;;;;;;;;4977502;28;20093;-81
2021/09/15 07:35:14;;;;;;;7.45;3.78;;;;;;;;;;4975791;28;20035;-80
2021/09/15 07:37:40;;;;;;;9.85;3.80;;;;;;;;;;4977404;28;20027;-82
2021/09/15 07:40:07;;;;;;;8.18;4.10;;;;;;;;;;4976359;28;20043;-80
2021/09/15 07:42:33;;;;;;;7.60;3.83;;;;;;;;;;4977318;28;20023;-80
2021/09/15 07:44:59;;;;;;;7.50;3.53;;;;;;;;;;4976078;28;20514;-80
2021/09/15 07:47:25;;;;;;;6.32;3.95;;;;;;;;;;4975928;28;20147;-81
2021/09/15 07:49:51;;;;;;;6.72;3.97;;;;;;;;;;4977785;28;20082;-80
2021/09/15 07:52:18;;;;;;;6.80;4.05;;;;;;;;;;4977124;28;20467;-79
2021/09/15 07:54:44;;;;;;;5.70;3.88;;;;;;;;;;4975815;28;20027;-80
2021/09/15 07:57:10;;;;;;;7.57;4.20;;;;;;;;;;4975870;28;20479;-80
2021/09/15 07:59:37;;;;;;;8.50;4.32;;;;;;;;;;4976944;28;20081;-80
2021/09/15 08:02:03;;;;;;;10.07;4.32;;;;;;;;;;4976762;28;20033;-80
2021/09/15 08:04:29;;;;;;;5.88;4.07;;;;;;;;;;4977449;28;20472;-82
2021/09/15 08:06:55;;;;;;;9.43;4.50;;;;;;;;;;4976829;28;20027;-80
2021/09/15 08:09:21;;;;;;;7.57;4.22;;;;;;;;;;4975527;28;20023;-80
2021/09/15 08:11:47;;;;;;;6.50;3.95;;;;;;;;;;4975712;28;20035;-80
2021/09/15 08:14:13;;;;;;;6.25;4.03;;;;;;;;;;4975496;28;20039;-81
2021/09/15 08:16:39;;;;;;;10.32;4.00;;;;;;;;;;4975361;28;20535;-81
2021/09/15 08:19:06;;;;;;;6.70;4.05;;;;;;;;;;4975254;28;20090;-81
2021/09/15 08:21:32;;;;;;;15.75;4.38;;;;;;;;;;4975336;28;20034;-81
2021/09/15 08:23:59;;;;;;;5.90;3.83;;;;;;;;;;4976611;28;20027;-81
2021/09/15 08:26:26;;;;;;;7.78;4.25;;;;;;;;;;4975179;28;20081;-81
2021/09/15 08:28:52;;;;;;;5.50;4.38;;;;;;;;;;4975225;28;20023;-81
2021/09/15 08:31:18;;;;;;;6.25;3.88;;;;;;;;;;4976092;28;20069;-82
2021/09/15 08:33:44;;;;;;;6.55;4.00;;;;;;;;;;4975032;28;20022;-81
2021/09/15 08:36:10;;;;;;;7.90;3.90;;;;;;;;;;4976310;28;20031;-81
2021/09/15 08:38:36;;;;;;;7.07;3.90;;;;;;;;;;4976797;28;20027;-82
2021/09/15 08:41:02;;;;;;;6.07;4.13;;;;;;;;;;4976660;28;20040;-81
2021/09/15 08:43:33;;;;;;;9.05;3.90;;;;;;;;;;4976700;28;20027;-82
2021/09/15 08:46:01;;;;;;;5.75;3.75;;;;;;;;;;4976194;28;20022;-81
2021/09/15 08:48:27;;;;;;;9.00;4.55;;;;;;;;;;4976179;28;20455;-81
2021/09/15 08:50:54;;;;;;;8.13;4.25;;;;;;;;;;4974737;28;20084;-81
2021/09/15 08:53:20;;;;;;;8.10;4.20;;;;;;;;;;4976531;28;20051;-80
2021/09/15 08:55:47;;;;;;;6.00;3.83;;;;;;;;;;4976019;28;20038;-81
2021/09/15 08:58:16;;;;;;;6.53;3.95;;;;;;;;;;4975909;28;20106;-81
2021/09/15 09:00:42;;;;;;;6.00;4.40;;;;;;;;;;4974606;28;20035;-80
2021/09/15 09:03:08;;;;;;;7.40;4.18;;;;;;;;;;4974497;28;20051;-81
2021/09/15 09:05:35;;;;;;;6.03;3.88;;;;;;;;;;4976391;28;20023;-80
2021/09/15 09:08:01;;;;;;;10.38;4.00;;;;;;;;;;4975774;28;20095;-81
2021/09/15 09:10:32;;;;;;;5.18;3.72;;;;;;;;;;4974347;28;20030;-81
2021/09/15 09:12:58;;;;;;;6.97;3.33;;;;;;;;;;4976268;28;20479;-81
2021/09/15 09:15:26;;;;;;;4.75;3.50;;;;;;;;;;4974406;28;20082;-82
2021/09/15 09:17:52;;;;;;;7.50;3.55;;;;;;;;;;4974387;28;20031;-81
2021/09/15 09:20:18;;;;;;;4.97;3.42;;;;;;;;;;4975481;28;20066;-82
2021/09/15 09:23:00;;;;;;;8.80;3.47;;;;;;;;;;4974199;28;20027;-82
2021/09/15 09:25:27;;;;;;;7.60;3.15;;;;;;;;;;4975583;28;20102;-81
2021/09/15 09:27:53;;;;;;;6.28;3.45;;;;;;;;;;4976317;28;20046;-82
2021/09/15 09:30:34;;;;;;;4.35;3.10;;;;;;;;;;4975849;28;20030;-82
2021/09/15 09:33:01;;;;;;;5.93;3.17;;;;;;;;;;4975290;28;20483;-82
2021/09/15 09:35:40;;;;;;;6.72;3.38;;;;;;;;;;4974068;28;20031;-82
2021/09/15 09:38:16;;;;;;;4.43;3.17;;;;;;;;;;4974233;28;20117;-82
2021/09/15 09:41:15;;;;;;;5.40;3.08;;;;;;;;;;4973779;28;20034;-82
2021/09/15 09:43:43;;;;;;;15.73;3.33;;;;;;;;;;4931341;28;20102;-81
2021/09/15 09:46:11;;;;;;;3.55;2.65;;;;;;;;;;4975036;28;20033;-82
2021/09/15 09:48:41;;;;;;;6.25;3.17;;;;;;;;;;4975076;28;20027;-83
2021/09/15 09:51:25;;;;;;;4.35;2.97;;;;;;;;;;4975687;28;20460;-80
2021/09/15 09:54:06;;;;;;;4.90;2.85;;;;;;;;;;4974982;28;20037;-80
2021/09/15 09:56:34;;;;;;;6.53;3.13;;;;;;;;;;4973738;28;20030;-84
2021/09/15 09:59:01;;;;;;;5.07;3.20;;;;;;;;;;4973658;28;20034;-84
2021/09/15 10:01:27;;;;;;;5.07;3.08;;;;;;;;;;4974365;28;20038;-81
2021/09/15 10:03:53;;;;;;;4.38;2.88;;;;;;;;;;4974673;28;20046;-83
2021/09/15 10:06:20;;;;;;;7.03;2.85;;;;;;;;;;4973475;28;20030;-84
2021/09/15 10:08:47;;;;;;;4.20;3.10;;;;;;;;;;4973419;28;20097;-84
2021/09/15 10:11:15;;;;;;;5.15;3.47;;;;;;;;;;4973441;28;20403;-84
2021/09/15 10:13:41;;;;;;;7.60;2.80;;;;;;;;;;4975183;28;20042;-83
2021/09/15 10:16:08;;;;;;;3.45;2.72;;;;;;;;;;4973341;28;20444;-83
2021/09/15 10:18:34;;;;;;;5.13;2.95;;;;;;;;;;4975197;28;20057;-80
2021/09/15 10:21:00;;;;;;;5.03;2.90;;;;;;;;;;4974522;28;20035;-83
2021/09/15 10:23:37;;;;;;;3.80;2.72;;;;;;;;;;4973372;28;20027;-82
2021/09/15 10:26:22;;;;;;;6.40;3.10;;;;;;;;;;4974757;28;20540;-82
2021/09/15 10:29:06;;;;;;;5.45;2.90;;;;;;;;;;4973332;28;20030;-82
2021/09/15 10:32:02;;;;;;;4.35;2.67;;;;;;;;;;4974539;28;20475;-82
2021/09/15 10:34:40;;;;;;;4.75;2.88;;;;;;;;;;4957049;28;20542;-80
2021/09/15 10:37:12;;;;;;;5.53;2.80;;;;;;;;;;4973193;28;20054;-82
2021/09/15 10:39:57;;;;;;;5.55;3.17;;;;;;;;;;4973126;28;20039;-84
2021/09/15 10:42:38;;;;;;;3.80;2.80;;;;;;;;;;4973146;28;20030;-83
2021/09/15 10:45:14;;;;;;;4.40;2.83;;;;;;;;;;4973077;28;20547;-82
2021/09/15 10:47:40;;;;;;;4.88;2.80;;;;;;;;;;4973130;28;20114;-82
2021/09/15 10:50:07;;;;;;;7.30;2.92;;;;;;;;;;4974352;28;20078;-82
2021/09/15 10:52:37;;;;;;;5.78;3.10;;;;;;;;;;4973092;28;20035;-82
2021/09/15 10:55:14;;;;;;;5.10;3.20;;;;;;;;;;4974033;28;20019;-80
2021/09/15 10:57:43;;;;;;;6.38;3.40;;;;;;;;;;4978120;28;20019;-80
2021/09/15 11:00:23;;;;;;;8.85;3.40;;;;;;;;;;4976832;28;20034;-81
2021/09/15 11:02:50;;;;;;;6.32;3.42;;;;;;;;;;4978305;28;20480;-81
2021/09/15 11:05:28;;;;;;;10.27;3.42;;;;;;;;;;4978087;28;20038;-83
2021/09/15 11:07:54;;;;;;;6.65;3.45;;;;;;;;;;4977987;28;20035;-82
2021/09/15 11:10:33;;;;;;;5.82;3.55;;;;;;;;;;4976756;28;20030;-81
2021/09/15 11:12:59;;;;;;;10.65;3.55;;;;;;;;;;4976685;28;20022;-84
2021/09/15 11:15:32;;;;;;;5.32;3.90;;;;;;;;;;4976492;28;20113;-84
2021/09/15 11:17:59;;;;;;;8.88;3.38;;;;;;;;;;4976488;28;20058;-85
2021/09/15 11:20:26;;;;;;;6.05;3.78;;;;;;;;;;4976365;28;20128;-83
2021/09/15 11:22:53;;;;;;;7.15;3.60;;;;;;;;;;4976317;28;20392;-84
2021/09/15 11:25:26;;;;;;;7.90;3.13;;;;;;;;;;4976362;28;20027;-84
2021/09/15 11:28:05;;;;;;;6.30;3.42;;;;;;;;;;4976357;28;20027;-84
2021/09/15 11:30:32;;;;;;;9.15;3.85;;;;;;;;;;4976233;28;20031;-83
2021/09/15 11:32:58;;;;;;;5.88;3.67;;;;;;;;;;4977494;28;20030;-85
2021/09/15 11:35:25;;;;;;;7.85;4.05;;;;;;;;;;4976132;28;20050;-84
2021/09/15 11:37:51;;;;;;;6.00;3.90;;;;;;;;;;4976109;28;20102;-84
2021/09/15 11:40:17;;;;;;;7.88;3.65;;;;;;;;;;4975918;28;20487;-82
2021/09/15 11:42:43;;;;;;;6.90;3.35;;;;;;;;;;4975959;28;20030;-85
2021/09/15 11:45:10;;;;;;;7.03;3.78;;;;;;;;;;4975937;28;20438;-84
2021/09/15 11:47:36;;;;;;;8.48;3.85;;;;;;;;;;4976292;28;20431;-86
2021/09/15 11:50:16;;;;;;;8.13;4.20;;;;;;;;;;4975822;28;20034;-86
2021/09/15 11:52:44;;;;;;;10.55;4.00;;;;;;;;;;4975747;28;20037;-87
2021/09/15 11:55:12;;;;;;;9.05;3.88;;;;;;;;;;4977160;28;20578;-89
2021/09/15 11:58:02;;;;;;;11.85;3.85;;;;;;;;;;4977000;28;20051;-88
2021/09/15 12:00:32;;;;;;;10.98;4.55;;;;;;;;;;4973769;28;20035;-87
2021/09/15 12:03:10;;;;;;;5.13;3.70;;;;;;;;;;4975454;28;20550;-85
2021/09/15 12:05:36;;;;;;;6.32;4.32;;;;;;;;;;4975580;28;20118;-86
2021/09/15 12:08:04;;;;;;;8.10;4.05;;;;;;;;;;4974682;28;20027;-86
2021/09/15 12:10:31;;;;;;;8.65;4.18;;;;;;;;;;4975435;28;20205;-87
2021/09/15 12:12:58;;;;;;;7.63;3.83;;;;;;;;;;4975473;28;20027;-88
2021/09/15 12:15:25;;;;;;;6.35;4.53;;;;;;;;;;4975458;28;20062;-87
2021/09/15 12:17:59;;;;;;;8.82;4.30;;;;;;;;;;4976546;28;20061;-86
2021/09/15 12:20:43;;;;;;;9.10;4.20;;;;;;;;;;4975253;28;20500;-85
2021/09/15 12:23:10;;;;;;;7.18;4.00;;;;;;;;;;4977081;28;20038;-86
2021/09/15 12:25:36;;;;;;;7.13;4.47;;;;;;;;;;4976504;28;20029;-85
2021/09/15 12:28:03;;;;;;;7.30;4.03;;;;;;;;;;4976423;28;20031;-88
2021/09/15 12:30:29;;;;;;;8.30;4.57;;;;;;;;;;4976505;28;20019;-88
2021/09/15 12:32:57;;;;;;;5.45;4.30;;;;;;;;;;4976772;28;20054;-86
2021/09/15 12:35:26;;;;;;;9.98;4.28;;;;;;;;;;4976313;28;20097;-88
2021/09/15 12:38:19;;;;;;;8.90;4.50;;;;;;;;;;4976273;28;20034;-85
2021/09/15 12:40:45;;;;;;;8.13;5.03;;;;;;;;;;4971851;28;20042;-86
2021/09/15 12:43:13;;;;;;;8.02;5.03;;;;;;;;;;4974812;28;20143;-85
2021/09/15 12:45:39;;;;;;;14.45;4.80;;;;;;;;;;4974946;28;20038;-86
2021/09/15 12:48:15;;;;;;;9.90;4.45;;;;;;;;;;4974767;28;20030;-86
2021/09/15 12:50:44;;;;;;;6.63;4.25;;;;;;;;;;4976593;28;20027;-87
2021/09/15 12:53:12;;;;;;;10.70;4.15;;;;;;;;;;4974773;28;20034;-86
2021/09/15 12:55:44;;;;;;;8.55;4.65;;;;;;;;;;4974778;28;20031;-83
2021/09/15 12:58:11;;;;;;;8.32;4.47;;;;;;;;;;4974813;28;20037;-87
2021/09/15 13:00:46;;;;;;;5.95;4.03;;;;;;;;;;4975744;28;20085;-88
2021/09/15 13:03:13;;;;;;;7.25;4.35;;;;;;;;;;4973549;28;20059;-87
2021/09/15 13:05:40;;;;;;;8.02;4.47;;;;;;;;;;4974184;28;20082;-86
2021/09/15 13:08:17;;;;;;;11.45;4.40;;;;;;;;;;4974410;28;20034;-88
2021/09/15 13:10:43;;;;;;;6.95;4.40;;;;;;;;;;4974387;28;20030;-87
2021/09/15 13:13:09;;;;;;;5.85;4.07;;;;;;;;;;4974421;28;20034;-83
2021/09/15 13:15:36;;;;;;;7.68;4.10;;;;;;;;;;4974940;28;20026;-83
2021/09/15 13:18:07;;;;;;;7.82;4.78;;;;;;;;;;4990037;28;20034;-84
2021/09/15 13:20:33;;;;;;;8.82;4.88;;;;;;;;;;4971264;28;20043;-84
2021/09/15 13:23:02;;;;;;;10.75;4.80;;;;;;;;;;4976561;28;20023;-83
2021/09/15 13:25:33;;;;;;;8.90;4.45;;;;;;;;;;4990099;28;20038;-84
2021/09/15 13:27:59;;;;;;;6.72;4.57;;;;;;;;;;4979538;28;20035;-85
2021/09/15 13:30:26;;;;;;;17.95;4.85;;;;;;;;;;4974505;28;20037;-83
2021/09/15 13:32:52;;;;;;;15.57;4.63;;;;;;;;;;4974421;28;20510;-83
2021/09/15 13:35:18;;;;;;;16.88;5.03;;;;;;;;;;4975935;28;20022;-82
2021/09/15 13:37:44;;;;;;;5.90;4.43;;;;;;;;;;4977376;28;20468;-84
2021/09/15 13:40:11;;;;;;;8.13;4.65;;;;;;;;;;4976430;28;20408;-85
2021/09/15 13:42:37;;;;;;;11.45;4.70;;;;;;;;;;4974871;28;20395;-84
2021/09/15 13:45:04;;;;;;;13.05;4.47;;;;;;;;;;4977544;28;20101;-83
2021/09/15 13:47:30;;;;;;;9.07;4.20;;;;;;;;;;4973434;28;20023;-84
2021/09/15 13:49:58;;;;;;;11.75;4.13;;;;;;;;;;4975291;28;20034;-83
2021/09/15 13:52:28;;;;;;;6.68;4.20;;;;;;;;;;4979525;28;20062;-83
2021/09/15 13:54:54;;;;;;;7.38;4.10;;;;;;;;;;4982543;28;20030;-83
2021/09/15 13:57:20;;;;;;;6.88;4.40;;;;;;;;;;4986676;28;20441;-86
2021/09/15 13:59:49;;;;;;;6.80;4.15;;;;;;;;;;4977305;28;20070;-86
2021/09/15 14:02:16;;;;;;;9.07;4.50;;;;;;;;;;4977067;28;20053;-85
2021/09/15 14:04:42;;;;;;;9.10;4.40;;;;;;;;;;4999701;23;20064;-88
2021/09/15 14:07:08;;;;;;;6.05;3.88;;;;;;;;;;4993850;28;20577;-90
2021/09/15 14:09:44;;;;;;;8.15;4.55;;;;;;;;;;4992841;28;20037;-86
2021/09/15 14:12:10;;;;;;;11.45;4.40;;;;;;;;;;4993537;28;20441;-90
2021/09/15 14:14:36;;;;;;;11.07;4.40;;;;;;;;;;4995796;28;20084;-87
2021/09/15 14:17:03;;;;;;;13.93;5.00;;;;;;;;;;4993485;28;20022;-91
2021/09/15 14:19:29;;;;;;;9.35;5.13;;;;;;;;;;4995691;28;20487;-89
2021/09/15 14:21:55;;;;;;;10.23;4.28;;;;;;;;;;4994356;28;20413;-90
2021/09/15 14:24:21;;;;;;;8.15;5.22;;;;;;;;;;4994009;28;20506;-86
2021/09/15 14:26:47;;;;;;;6.97;4.47;;;;;;;;;;4993843;28;20474;-87
2021/09/15 14:29:14;;;;;;;38.85;19.08;;;;;;;;;;4994140;28;20094;-89
2021/09/15 14:31:40;;;;;;;18.52;8.95;;;;;;;;;;4998118;28;20027;-89
2021/09/15 14:34:06;;;;;;;7.80;4.68;;;;;;;;;;4999511;28;20031;-86
2021/09/15 14:36:33;;;;;;;11.13;4.90;;;;;;;;;;4999023;28;20387;-89
2021/09/15 14:38:59;;;;;;;14.15;9.50;;;;;;;;;;5001282;28;20033;-89
2021/09/15 14:41:25;;;;;;;181.77;54.25;;;;;;;;;;5004370;28;20034;-86
2021/09/15 14:43:52;;;;;;;90.63;41.60;;;;;;;;;;4998578;28;20022;-87
2021/09/15 14:46:19;;;;;;;885.13;472.40;;;;;;;;;;4998901;28;20026;-92